Terminal Aerodrome Forecast
Issued by NWS

Current Version | Previous Version | Text Only | Print | Product List | Glossary Off
Versions: 1 2 3 4 5 6 7 8 9 10 11 12 13 14

000
FTUS42 KILM 192300
TAFCRE
TAF
KCRE 192321Z 2000/2024 VRB02KT P6SM BKN200
     FM200800 03004KT P6SM BKN120
     FM201200 04005KT P6SM -RA BKN040 OVC100
     FM201600 03007KT 6SM -RA BKN015 OVC040=

USA.gov is the U.S. government's official web portal to all federal, state and local government web resources and services.